createdAt,value
2023-04-08T00:01:22.633Z,9.55
2023-04-08T00:04:16.246Z,8.55
2023-04-08T00:07:08.935Z,9.27
2023-04-08T00:10:02.141Z,9.10
2023-04-08T00:13:00.350Z,9.63
2023-04-08T00:15:46.522Z,9.55
2023-04-08T00:18:39.642Z,10.27
2023-04-08T00:21:32.360Z,9.88
2023-04-08T00:24:35.951Z,9.13
2023-04-08T00:27:31.023Z,10.38
2023-04-08T00:30:28.390Z,9.13
2023-04-08T00:33:18.471Z,9.00
2023-04-08T00:36:06.369Z,10.68
2023-04-08T00:38:53.796Z,9.63
2023-04-08T00:41:39.987Z,10.82
2023-04-08T00:45:07.356Z,10.65
2023-04-08T00:48:08.984Z,10.73
2023-04-08T00:51:01.613Z,10.75
2023-04-08T00:54:07.309Z,10.48
2023-04-08T00:57:09.151Z,10.88
2023-04-08T01:03:27.120Z,11.13
2023-04-08T01:06:58.227Z,10.38
2023-04-08T01:10:07.733Z,9.90
2023-04-08T01:13:36.294Z,9.48
2023-04-08T01:16:39.323Z,10.80
2023-04-08T01:19:40.247Z,10.68
2023-04-08T01:22:58.276Z,13.02
2023-04-08T01:26:07.573Z,12.80
2023-04-08T01:28:57.913Z,12.90
2023-04-08T01:31:48.171Z,11.93
2023-04-08T01:34:48.749Z,12.40
2023-04-08T01:41:13.910Z,13.13
2023-04-08T01:47:29.072Z,14.15
2023-04-08T01:54:05.824Z,10.57
2023-04-08T01:57:32.904Z,10.95
2023-04-08T02:00:46.240Z,10.23
2023-04-08T02:03:39.495Z,9.75
2023-04-08T02:06:42.853Z,9.15
2023-04-08T02:09:32.786Z,10.38
2023-04-08T02:12:27.206Z,11.38
2023-04-08T02:15:29.582Z,11.27
2023-04-08T02:18:56.412Z,11.05
2023-04-08T02:21:57.040Z,13.02
2023-04-08T02:24:50.213Z,10.93
2023-04-08T02:27:53.480Z,10.13
2023-04-08T02:31:05.782Z,10.20
2023-04-08T02:34:16.619Z,11.05
2023-04-08T02:37:24.220Z,10.40
2023-04-08T02:40:43.902Z,12.60
2023-04-08T02:43:39.112Z,10.93
2023-04-08T02:46:28.192Z,11.50
2023-04-08T02:49:23.555Z,10.80
2023-04-08T02:58:21.595Z,10.63
2023-04-08T03:01:11.076Z,10.10
2023-04-08T03:04:30.912Z,9.77
2023-04-08T03:07:18.775Z,10.77
2023-04-08T03:10:14.127Z,10.60
2023-04-08T03:13:11.600Z,10.13
2023-04-08T03:16:00.128Z,9.05
2023-04-08T03:18:48.951Z,8.77
2023-04-08T03:22:11.813Z,9.80
2023-04-08T03:25:01.073Z,9.30
2023-04-08T03:28:58.271Z,11.02
2023-04-08T03:32:00.788Z,9.68
2023-04-08T03:38:07.673Z,10.43
2023-04-08T03:41:07.505Z,9.07
2023-04-08T03:44:07.221Z,8.88
2023-04-08T03:46:55.377Z,9.45
2023-04-08T03:49:51.101Z,10.23
2023-04-08T03:52:39.974Z,9.27
2023-04-08T03:55:36.243Z,8.77
2023-04-08T03:58:33.584Z,8.57
2023-04-08T04:01:21.856Z,8.80
2023-04-08T04:04:19.615Z,9.90
2023-04-08T04:07:07.443Z,9.38
2023-04-08T04:10:02.568Z,9.77
2023-04-08T04:12:56.534Z,9.23
2023-04-08T04:15:44.437Z,9.00
2023-04-08T04:18:36.267Z,10.07
2023-04-08T04:29:01.176Z,9.07
2023-04-08T04:31:46.924Z,10.35
2023-04-08T04:34:32.649Z,10.80
2023-04-08T04:37:18.610Z,11.52
2023-04-08T04:40:05.333Z,9.75
2023-04-08T04:42:53.250Z,10.88
2023-04-08T04:45:38.918Z,9.07
2023-04-08T04:48:24.262Z,9.15
2023-04-08T04:51:10.933Z,9.40
2023-04-08T04:53:57.393Z,10.02
2023-04-08T04:56:44.001Z,10.02
2023-04-08T04:59:31.853Z,8.65
2023-04-08T05:02:17.730Z,10.02
2023-04-08T05:05:03.409Z,9.73
2023-04-08T05:07:49.327Z,10.25
2023-04-08T05:10:35.484Z,8.50
2023-04-08T05:13:21.788Z,9.40
2023-04-08T05:16:08.405Z,9.77
2023-04-08T05:18:55.241Z,10.60
2023-04-08T05:21:42.084Z,9.52
2023-04-08T05:24:29.828Z,10.07
2023-04-08T05:27:15.695Z,9.50
2023-04-08T05:30:03.280Z,9.68
2023-04-08T05:32:49.192Z,8.60
2023-04-08T05:35:36.492Z,9.13
2023-04-08T05:38:21.954Z,9.82
2023-04-08T05:41:08.050Z,8.48
2023-04-08T05:43:54.451Z,9.45
2023-04-08T05:46:40.741Z,10.60
2023-04-08T05:49:31.990Z,8.57
2023-04-08T05:52:17.818Z,9.75
2023-04-08T05:55:04.077Z,8.40
2023-04-08T05:57:50.723Z,7.63
2023-04-08T06:00:36.837Z,8.57
2023-04-08T06:03:22.593Z,7.97
2023-04-08T06:06:14.792Z,7.93
2023-04-08T06:09:00.940Z,7.90
2023-04-08T06:11:50.498Z,8.10
2023-04-08T06:14:37.203Z,7.68
2023-04-08T06:17:23.966Z,7.93
2023-04-08T06:20:10.575Z,7.72
2023-04-08T06:22:56.515Z,7.95
2023-04-08T06:25:42.945Z,9.20
2023-04-08T06:28:31.094Z,8.85
2023-04-08T06:31:18.055Z,8.57
2023-04-08T06:34:08.966Z,7.88
2023-04-08T06:36:54.594Z,6.90
2023-04-08T06:39:40.522Z,8.05
2023-04-08T06:42:26.841Z,7.18
2023-04-08T06:45:12.543Z,7.57
2023-04-08T06:47:58.236Z,6.60
2023-04-08T06:50:44.182Z,7.15
2023-04-08T06:53:30.785Z,7.78
2023-04-08T06:56:16.032Z,7.38
2023-04-08T06:59:02.014Z,6.68
2023-04-08T07:01:47.907Z,6.38
2023-04-08T07:04:36.920Z,7.07
2023-04-08T07:07:24.291Z,6.78
2023-04-08T07:10:11.131Z,6.07
2023-04-08T07:12:57.611Z,7.95
2023-04-08T07:15:43.715Z,6.72
2023-04-08T07:18:29.519Z,6.40
2023-04-08T07:21:15.367Z,6.35
2023-04-08T07:24:01.073Z,6.97
2023-04-08T07:26:46.668Z,7.10
2023-04-08T07:29:32.387Z,7.18
2023-04-08T07:32:17.679Z,6.57
2023-04-08T07:35:03.704Z,7.00
2023-04-08T07:37:49.280Z,7.35
2023-04-08T07:40:34.818Z,6.72
2023-04-08T07:43:20.519Z,7.00
2023-04-08T07:46:06.676Z,4.68
2023-04-08T07:48:52.807Z,5.70
2023-04-08T07:51:38.463Z,5.57
2023-04-08T07:54:23.848Z,6.50
2023-04-08T07:57:09.358Z,6.30
2023-04-08T07:59:56.010Z,6.50
2023-04-08T08:02:41.687Z,6.65
2023-04-08T08:05:27.424Z,6.38
2023-04-08T08:08:13.035Z,5.60
2023-04-08T08:10:58.321Z,7.55
2023-04-08T08:13:43.893Z,6.15
2023-04-08T08:16:30.051Z,4.47
2023-04-08T08:19:15.562Z,5.53
2023-04-08T08:22:01.367Z,5.70
2023-04-08T08:24:47.398Z,5.32
2023-04-08T08:27:34.458Z,5.18
2023-04-08T08:30:21.919Z,5.90
2023-04-08T08:33:07.578Z,5.53
2023-04-08T08:35:53.401Z,5.65
2023-04-08T08:38:39.208Z,5.55
2023-04-08T08:41:24.484Z,5.47
2023-04-08T08:44:10.852Z,5.40
2023-04-08T08:46:56.458Z,6.32
2023-04-08T08:49:43.178Z,6.40
2023-04-08T08:52:28.645Z,5.97
2023-04-08T08:55:29.790Z,6.07
2023-04-08T08:58:19.759Z,5.97
2023-04-08T09:01:32.436Z,5.68
2023-04-08T09:04:20.692Z,5.55
2023-04-08T09:07:11.497Z,6.82
2023-04-08T09:09:58.721Z,6.47
2023-04-08T09:12:55.917Z,6.43
2023-04-08T09:16:03.620Z,6.32
2023-04-08T09:18:49.799Z,5.25
2023-04-08T09:21:35.723Z,5.03
2023-04-08T09:24:29.340Z,4.13
2023-04-08T09:27:14.846Z,3.90
2023-04-08T09:30:16.505Z,4.38
2023-04-08T09:33:07.134Z,4.40
2023-04-08T09:35:53.312Z,4.20
2023-04-08T09:38:39.152Z,4.00
2023-04-08T09:41:28.598Z,3.70
2023-04-08T09:44:17.220Z,3.78
2023-04-08T09:47:19.324Z,3.58
2023-04-08T09:50:09.139Z,3.17
2023-04-08T09:53:02.620Z,3.47
2023-04-08T09:55:56.320Z,2.55
2023-04-08T09:58:52.315Z,2.97
2023-04-08T10:01:52.634Z,2.83
2023-04-08T10:04:42.083Z,3.20
2023-04-08T10:07:27.839Z,2.72
2023-04-08T10:10:13.323Z,3.60
2023-04-08T10:12:59.310Z,3.95
2023-04-08T10:15:47.516Z,3.72
2023-04-08T10:18:33.778Z,3.20
2023-04-08T10:21:40.060Z,2.53
2023-04-08T10:24:26.088Z,2.55
2023-04-08T10:27:43.502Z,2.65
2023-04-08T10:30:29.280Z,3.67
2023-04-08T10:33:25.944Z,3.70
2023-04-08T10:36:15.035Z,3.53
2023-04-08T10:39:00.682Z,3.42
2023-04-08T10:41:47.078Z,3.53
2023-04-08T10:44:32.961Z,4.50
2023-04-08T10:47:26.389Z,3.28
2023-04-08T10:50:20.110Z,4.47
2023-04-08T10:55:52.676Z,4.80
2023-04-08T10:58:48.718Z,4.05
2023-04-08T11:01:42.120Z,4.97
2023-04-08T11:04:28.538Z,4.20
2023-04-08T11:07:15.518Z,4.32
2023-04-08T11:10:04.221Z,4.65
2023-04-08T11:12:50.441Z,5.00
2023-04-08T11:15:37.002Z,4.57
2023-04-08T11:18:23.367Z,4.32
2023-04-08T11:21:11.786Z,4.28
2023-04-08T11:23:57.216Z,4.00
2023-04-08T11:26:42.800Z,5.03
2023-04-08T11:29:29.196Z,3.70
2023-04-08T11:32:14.739Z,4.47
2023-04-08T11:35:04.141Z,3.75
2023-04-08T11:37:49.868Z,4.00
2023-04-08T11:40:35.600Z,3.88
2023-04-08T11:43:21.005Z,3.75
2023-04-08T11:46:10.931Z,3.38
2023-04-08T11:49:06.932Z,3.33
2023-04-08T11:51:59.020Z,3.08
2023-04-08T11:54:44.444Z,3.30
2023-04-08T11:57:30.378Z,3.78
2023-04-08T12:00:16.023Z,3.67
2023-04-08T12:03:01.429Z,3.30
2023-04-08T12:05:46.820Z,3.15
2023-04-08T12:08:32.278Z,3.30
2023-04-08T12:11:19.941Z,3.58
2023-04-08T12:14:05.551Z,3.63
2023-04-08T12:16:51.326Z,3.15
2023-04-08T12:19:38.516Z,2.97
2023-04-08T12:22:24.565Z,3.17
2023-04-08T12:25:10.322Z,3.80
2023-04-08T12:27:55.648Z,2.90
2023-04-08T12:30:41.563Z,3.25
2023-04-08T12:33:26.895Z,2.72
2023-04-08T12:36:13.625Z,2.88
2023-04-08T12:38:59.457Z,3.13
2023-04-08T12:41:47.679Z,3.10
2023-04-08T12:44:33.238Z,2.83
2023-04-08T12:47:19.218Z,2.88
2023-04-08T12:50:05.525Z,3.30
2023-04-08T12:52:50.831Z,3.20
2023-04-08T12:55:36.426Z,3.47
2023-04-08T12:58:22.535Z,2.97
2023-04-08T13:01:08.234Z,3.78
2023-04-08T13:03:54.487Z,2.67
2023-04-08T13:06:39.997Z,3.00
2023-04-08T13:09:25.480Z,2.72
2023-04-08T13:12:12.194Z,2.85
2023-04-08T13:14:58.442Z,2.97
2023-04-08T13:17:44.141Z,3.00
2023-04-08T13:20:30.023Z,2.70
2023-04-08T13:23:17.906Z,3.13
2023-04-08T13:26:03.820Z,2.70
2023-04-08T13:28:57.203Z,3.08
2023-04-08T13:31:43.285Z,3.22
2023-04-08T13:34:29.101Z,3.53
2023-04-08T13:37:14.615Z,2.92
2023-04-08T13:40:00.234Z,2.75
2023-04-08T13:42:45.795Z,3.05
2023-04-08T13:45:31.198Z,2.53
2023-04-08T13:48:16.999Z,3.15
2023-04-08T13:51:02.651Z,3.17
2023-04-08T13:53:48.007Z,3.00
2023-04-08T13:56:33.770Z,2.90
2023-04-08T13:59:19.160Z,3.00
2023-04-08T14:02:05.179Z,2.80
2023-04-08T14:04:50.654Z,2.90
2023-04-08T14:07:36.482Z,3.17
2023-04-08T14:10:21.964Z,3.33
2023-04-08T14:13:07.532Z,2.95
2023-04-08T14:15:54.983Z,2.92
2023-04-08T14:18:40.745Z,2.67
2023-04-08T14:21:26.860Z,3.83
2023-04-08T14:24:12.178Z,2.90
2023-04-08T14:26:57.994Z,2.80
2023-04-08T14:29:43.748Z,2.67
2023-04-08T14:32:29.346Z,2.97
2023-04-08T14:35:15.089Z,2.63
2023-04-08T14:38:00.655Z,2.67
2023-04-08T14:40:46.324Z,3.15
2023-04-08T14:43:31.960Z,3.30
2023-04-08T14:46:17.155Z,3.50
2023-04-08T14:49:02.849Z,2.78
2023-04-08T14:51:48.441Z,3.20
2023-04-08T14:54:34.397Z,2.90
2023-04-08T14:57:20.400Z,2.80
2023-04-08T15:00:07.704Z,3.05
2023-04-08T15:02:53.409Z,2.92
2023-04-08T15:05:39.371Z,2.63
2023-04-08T15:08:24.782Z,3.15
2023-04-08T15:11:10.374Z,2.55
2023-04-08T15:13:56.167Z,3.17
2023-04-08T15:16:41.633Z,3.03
2023-04-08T15:19:27.541Z,3.42
2023-04-08T15:22:13.033Z,3.17
2023-04-08T15:24:59.039Z,4.20
2023-04-08T15:27:45.204Z,3.20
2023-04-08T15:30:36.558Z,3.42
2023-04-08T15:33:25.929Z,3.78
2023-04-08T15:36:12.270Z,3.03
2023-04-08T15:39:01.981Z,3.08
2023-04-08T15:41:47.740Z,3.80
2023-04-08T15:44:33.578Z,3.70
2023-04-08T15:47:19.086Z,3.92
2023-04-08T15:50:04.997Z,3.72
2023-04-08T15:52:50.727Z,3.60
2023-04-08T15:55:43.334Z,4.25
2023-04-08T15:58:29.204Z,3.45
2023-04-08T16:01:15.376Z,3.78
2023-04-08T16:04:01.323Z,3.90
2023-04-08T16:06:47.299Z,3.58
2023-04-08T16:09:33.061Z,4.10
2023-04-08T16:12:19.560Z,3.75
2023-04-08T16:15:05.607Z,3.67
2023-04-08T16:17:53.036Z,6.40
2023-04-08T16:20:39.012Z,4.10
2023-04-08T16:23:24.390Z,3.17
2023-04-08T16:26:10.042Z,3.95
2023-04-08T16:28:55.582Z,3.58
2023-04-08T16:31:41.285Z,3.50
2023-04-08T16:34:26.684Z,3.55
2023-04-08T16:37:14.351Z,3.92
2023-04-08T16:40:00.675Z,3.00
2023-04-08T16:42:47.316Z,3.80
2023-04-08T16:45:33.262Z,2.90
2023-04-08T16:48:19.236Z,3.38
2023-04-08T16:51:06.120Z,3.47
2023-04-08T16:53:52.019Z,3.20
2023-04-08T16:56:37.684Z,3.22
2023-04-08T16:59:23.527Z,3.13
2023-04-08T17:02:09.466Z,4.03
2023-04-08T17:04:55.080Z,3.67
2023-04-08T17:07:40.668Z,3.70
2023-04-08T17:10:26.196Z,3.65
2023-04-08T17:13:16.823Z,3.40
2023-04-08T17:16:02.455Z,3.45
2023-04-08T17:18:48.526Z,3.80
2023-04-08T17:21:34.178Z,3.08
2023-04-08T17:24:19.634Z,2.97
2023-04-08T17:27:05.598Z,4.25
2023-04-08T17:29:57.484Z,3.60
2023-04-08T17:32:43.138Z,3.05
2023-04-08T17:35:28.852Z,3.75
2023-04-08T17:38:14.745Z,3.72
2023-04-08T17:41:00.490Z,2.92
2023-04-08T17:43:46.253Z,3.25
2023-04-08T17:46:35.552Z,3.20
2023-04-08T17:49:21.053Z,3.70
2023-04-08T17:52:07.062Z,3.85
2023-04-08T17:54:54.102Z,3.95
2023-04-08T17:57:39.691Z,4.35
2023-04-08T18:00:26.604Z,4.22
2023-04-08T18:03:12.141Z,3.88
2023-04-08T18:05:57.942Z,4.53
2023-04-08T18:08:43.578Z,3.13
2023-04-08T18:11:28.794Z,4.13
2023-04-08T18:14:14.515Z,3.83
2023-04-08T18:17:00.506Z,3.88
2023-04-08T18:19:46.336Z,3.20
2023-04-08T18:22:31.915Z,3.42
2023-04-08T18:25:19.706Z,3.13
2023-04-08T18:28:05.612Z,3.70
2023-04-08T18:30:52.730Z,2.92
2023-04-08T18:33:39.111Z,2.70
2023-04-08T18:36:24.541Z,2.90
2023-04-08T18:39:10.476Z,3.05
2023-04-08T18:41:56.733Z,2.90
2023-04-08T18:44:42.877Z,3.13
2023-04-08T18:47:28.583Z,3.90
2023-04-08T18:50:14.253Z,3.28
2023-04-08T18:52:59.746Z,3.50
2023-04-08T18:55:45.596Z,3.40
2023-04-08T18:58:33.523Z,3.33
2023-04-08T19:01:19.765Z,3.42
2023-04-08T19:04:05.487Z,4.53
2023-04-08T19:06:51.595Z,3.85
2023-04-08T19:09:37.623Z,4.15
2023-04-08T19:12:23.137Z,4.10
2023-04-08T19:15:09.092Z,4.20
2023-04-08T19:17:54.604Z,4.43
2023-04-08T19:20:40.735Z,5.00
2023-04-08T19:23:26.503Z,4.28
2023-04-08T19:26:15.431Z,4.55
2023-04-08T19:29:01.383Z,4.85
2023-04-08T19:31:47.168Z,6.25
2023-04-08T19:34:39.530Z,6.05
2023-04-08T19:37:26.029Z,6.57
2023-04-08T19:40:11.768Z,7.90
2023-04-08T19:42:57.459Z,7.35
2023-04-08T19:45:43.066Z,6.40
2023-04-08T19:48:28.508Z,6.93
2023-04-08T19:51:18.945Z,6.57
2023-04-08T19:54:04.504Z,7.55
2023-04-08T19:56:50.216Z,8.20
2023-04-08T19:59:35.651Z,6.57
2023-04-08T20:02:22.221Z,7.22
2023-04-08T20:05:08.456Z,6.72
2023-04-08T20:07:54.379Z,8.50
2023-04-08T20:10:40.209Z,12.35
2023-04-08T20:13:26.342Z,16.98
2023-04-08T20:16:12.468Z,17.70
2023-04-08T20:18:58.329Z,16.40
2023-04-08T20:21:44.494Z,14.75
2023-04-08T20:24:29.887Z,12.98
2023-04-08T20:27:16.604Z,12.27
2023-04-08T20:30:02.171Z,10.98
2023-04-08T20:32:47.761Z,10.98
2023-04-08T20:35:33.365Z,12.25
2023-04-08T20:38:19.641Z,12.18
2023-04-08T20:41:06.505Z,13.23
2023-04-08T20:43:53.036Z,12.93
2023-04-08T20:46:38.564Z,13.85
2023-04-08T20:49:24.854Z,13.10
2023-04-08T20:52:10.465Z,13.02
2023-04-08T20:54:56.208Z,11.95
2023-04-08T20:57:42.136Z,11.68
2023-04-08T21:00:27.924Z,12.07
2023-04-08T21:03:14.282Z,12.07
2023-04-08T21:05:59.927Z,13.60
2023-04-08T21:08:46.206Z,13.35
2023-04-08T21:11:31.810Z,13.15
2023-04-08T21:14:17.245Z,13.38
2023-04-08T21:17:03.267Z,13.73
2023-04-08T21:19:48.911Z,13.63
2023-04-08T21:22:34.431Z,13.60
2023-04-08T21:25:20.441Z,14.27
2023-04-08T21:28:06.036Z,14.70
2023-04-08T21:30:52.022Z,15.80
2023-04-08T21:33:38.169Z,13.90
2023-04-08T21:36:24.256Z,14.68
2023-04-08T21:39:09.668Z,16.42
2023-04-08T21:41:55.017Z,15.30
2023-04-08T21:44:40.565Z,17.08
2023-04-08T21:47:26.439Z,17.85
2023-04-08T21:50:12.267Z,17.38
2023-04-08T21:52:58.028Z,17.45
2023-04-08T21:55:43.211Z,17.77
2023-04-08T21:58:28.964Z,17.77
2023-04-08T22:01:14.388Z,17.75
2023-04-08T22:04:00.603Z,16.67
2023-04-08T22:06:49.512Z,18.42
2023-04-08T22:09:35.243Z,17.45
2023-04-08T22:12:20.562Z,18.23
2023-04-08T22:15:06.564Z,18.40
2023-04-08T22:17:53.202Z,17.27
2023-04-08T22:20:38.909Z,17.27
2023-04-08T22:23:24.813Z,17.17
2023-04-08T22:26:10.471Z,16.98
2023-04-08T22:28:56.228Z,15.35
2023-04-08T22:31:41.944Z,15.90
2023-04-08T22:34:27.526Z,13.77
2023-04-08T22:37:13.315Z,14.02
2023-04-08T22:40:02.730Z,14.02
2023-04-08T22:42:48.237Z,13.38
2023-04-08T22:45:34.028Z,12.75
2023-04-08T22:48:19.556Z,13.65
2023-04-08T22:51:06.661Z,13.05
2023-04-08T22:53:52.566Z,15.10
2023-04-08T22:56:38.558Z,17.10
2023-04-08T22:59:24.148Z,15.13
2023-04-08T23:02:09.730Z,16.00
2023-04-08T23:04:56.214Z,13.65
2023-04-08T23:07:42.117Z,14.50
2023-04-08T23:10:27.362Z,14.23
2023-04-08T23:13:14.107Z,14.90
2023-04-08T23:16:00.133Z,13.57
2023-04-08T23:18:45.828Z,13.82
2023-04-08T23:21:31.498Z,14.27
2023-04-08T23:24:16.716Z,13.77
2023-04-08T23:27:02.559Z,15.35
2023-04-08T23:29:48.357Z,14.48
2023-04-08T23:32:35.476Z,14.52
2023-04-08T23:35:21.043Z,14.75
2023-04-08T23:38:06.833Z,17.13
2023-04-08T23:40:52.255Z,17.30
2023-04-08T23:43:38.125Z,17.38
2023-04-08T23:46:23.547Z,16.73
2023-04-08T23:49:09.472Z,18.30
2023-04-08T23:51:54.814Z,18.08
2023-04-08T23:54:40.509Z,18.75
2023-04-08T23:57:26.256Z,19.08
